sensor_id;sensor_type;location;lat;lon;timestamp;pressure;altitude;pressure_sealevel;temperature;humidity
21742;BME280;11033;47.490;11.116;2022-12-07T00:00:49;92986.06;;;1.07;92.37
21742;BME280;11033;47.490;11.116;2022-12-07T00:03:14;92992.75;;;1.00;92.27
21742;BME280;11033;47.490;11.116;2022-12-07T00:05:40;92992.34;;;0.94;92.95
21742;BME280;11033;47.490;11.116;2022-12-07T00:08:05;92994.09;;;0.94;93.82
21742;BME280;11033;47.490;11.116;2022-12-07T00:10:33;92990.28;;;0.98;92.44
21742;BME280;11033;47.490;11.116;2022-12-07T00:12:58;92985.91;;;0.99;91.90
21742;BME280;11033;47.490;11.116;2022-12-07T00:15:23;92989.75;;;0.94;92.04
21742;BME280;11033;47.490;11.116;2022-12-07T00:17:49;92988.09;;;0.93;93.14
21742;BME280;11033;47.490;11.116;2022-12-07T00:20:14;92983.59;;;0.95;92.13
21742;BME280;11033;47.490;11.116;2022-12-07T00:22:39;92978.56;;;0.94;92.08
21742;BME280;11033;47.490;11.116;2022-12-07T00:25:05;92975.16;;;0.84;94.92
21742;BME280;11033;47.490;11.116;2022-12-07T00:27:30;92974.72;;;0.88;94.39
21742;BME280;11033;47.490;11.116;2022-12-07T00:29:55;92981.56;;;0.89;94.62
21742;BME280;11033;47.490;11.116;2022-12-07T00:32:21;92973.09;;;0.87;93.79
21742;BME280;11033;47.490;11.116;2022-12-07T00:34:46;92979.38;;;0.85;94.54
21742;BME280;11033;47.490;11.116;2022-12-07T00:37:11;92978.28;;;0.87;93.99
21742;BME280;11033;47.490;11.116;2022-12-07T00:39:37;92976.78;;;0.85;95.37
21742;BME280;11033;47.490;11.116;2022-12-07T00:42:02;92976.38;;;0.80;95.98
21742;BME280;11033;47.490;11.116;2022-12-07T00:44:29;92975.00;;;0.85;95.38
21742;BME280;11033;47.490;11.116;2022-12-07T00:46:54;92972.56;;;0.84;94.87
21742;BME280;11033;47.490;11.116;2022-12-07T00:49:21;92971.72;;;0.83;95.07
21742;BME280;11033;47.490;11.116;2022-12-07T00:51:48;92975.97;;;0.84;95.53
21742;BME280;11033;47.490;11.116;2022-12-07T00:54:13;92970.91;;;0.83;93.92
21742;BME280;11033;47.490;11.116;2022-12-07T00:56:38;92973.66;;;0.91;93.26
21742;BME280;11033;47.490;11.116;2022-12-07T00:59:04;92966.81;;;0.90;92.51
21742;BME280;11033;47.490;11.116;2022-12-07T01:01:35;92954.53;;;0.92;92.46
21742;BME280;11033;47.490;11.116;2022-12-07T01:04:00;92951.00;;;0.93;92.06
21742;BME280;11033;47.490;11.116;2022-12-07T01:06:26;92957.94;;;0.92;90.74
21742;BME280;11033;47.490;11.116;2022-12-07T01:08:53;92955.78;;;0.88;92.50
21742;BME280;11033;47.490;11.116;2022-12-07T01:11:21;92957.00;;;0.84;93.08
21742;BME280;11033;47.490;11.116;2022-12-07T01:13:50;92958.63;;;0.85;92.16
21742;BME280;11033;47.490;11.116;2022-12-07T01:16:15;92969.00;;;0.85;92.77
21742;BME280;11033;47.490;11.116;2022-12-07T01:18:41;92967.38;;;0.84;92.48
21742;BME280;11033;47.490;11.116;2022-12-07T01:21:15;92961.22;;;0.75;94.63
21742;BME280;11033;47.490;11.116;2022-12-07T01:23:41;92966.81;;;0.80;94.34
21742;BME280;11033;47.490;11.116;2022-12-07T01:26:11;92962.47;;;0.81;92.96
21742;BME280;11033;47.490;11.116;2022-12-07T01:28:37;92966.97;;;0.79;93.92
21742;BME280;11033;47.490;11.116;2022-12-07T01:31:08;92972.41;;;0.76;94.63
21742;BME280;11033;47.490;11.116;2022-12-07T01:33:36;92968.72;;;0.78;95.49
21742;BME280;11033;47.490;11.116;2022-12-07T01:36:12;92972.56;;;0.84;94.46
21742;BME280;11033;47.490;11.116;2022-12-07T01:38:38;92967.91;;;0.78;94.78
21742;BME280;11033;47.490;11.116;2022-12-07T01:41:03;92971.72;;;0.83;93.56
21742;BME280;11033;47.490;11.116;2022-12-07T01:43:31;92964.38;;;0.79;93.81
21742;BME280;11033;47.490;11.116;2022-12-07T01:45:57;92972.97;;;0.79;93.31
21742;BME280;11033;47.490;11.116;2022-12-07T01:48:30;92970.66;;;0.86;92.54
21742;BME280;11033;47.490;11.116;2022-12-07T01:51:01;92974.06;;;0.86;93.03
21742;BME280;11033;47.490;11.116;2022-12-07T01:53:29;92971.47;;;0.86;92.08
21742;BME280;11033;47.490;11.116;2022-12-07T01:55:57;92967.38;;;0.84;93.65
21742;BME280;11033;47.490;11.116;2022-12-07T01:58:24;92971.47;;;0.86;91.93
21742;BME280;11033;47.490;11.116;2022-12-07T02:00:50;92958.63;;;0.85;92.87
21742;BME280;11033;47.490;11.116;2022-12-07T02:03:24;92957.00;;;0.84;92.68
21742;BME280;11033;47.490;11.116;2022-12-07T02:05:51;92963.28;;;0.81;93.30
21742;BME280;11033;47.490;11.116;2022-12-07T02:08:18;92968.19;;;0.84;93.04
21742;BME280;11033;47.490;11.116;2022-12-07T02:10:43;92954.81;;;0.79;93.26
21742;BME280;11033;47.490;11.116;2022-12-07T02:13:26;92957.56;;;0.78;93.04
21742;BME280;11033;47.490;11.116;2022-12-07T02:21:45;92958.63;;;0.75;95.46
21742;BME280;11033;47.490;11.116;2022-12-07T02:24:28;92952.78;;;0.73;96.13
21742;BME280;11033;47.490;11.116;2022-12-07T02:27:14;92952.91;;;0.72;97.08
21742;BME280;11033;47.490;11.116;2022-12-07T02:29:49;92957.13;;;0.73;96.93
21742;BME280;11033;47.490;11.116;2022-12-07T02:32:26;92953.72;;;0.82;95.78
21742;BME280;11033;47.490;11.116;2022-12-07T02:35:04;92944.19;;;0.82;94.53
21742;BME280;11033;47.490;11.116;2022-12-07T02:37:42;92954.00;;;0.79;94.03
21742;BME280;11033;47.490;11.116;2022-12-07T02:40:31;92940.09;;;0.80;94.62
21742;BME280;11033;47.490;11.116;2022-12-07T02:43:04;92938.03;;;0.83;94.21
21742;BME280;11033;47.490;11.116;2022-12-07T02:45:32;92937.50;;;0.80;94.87
21742;BME280;11033;47.490;11.116;2022-12-07T02:48:00;92943.09;;;0.75;95.58
21742;BME280;11033;47.490;11.116;2022-12-07T02:50:26;92944.31;;;0.81;94.51
21742;BME280;11033;47.490;11.116;2022-12-07T02:52:52;92946.91;;;0.81;95.18
21742;BME280;11033;47.490;11.116;2022-12-07T02:55:19;92942.00;;;0.78;95.93
21742;BME280;11033;47.490;11.116;2022-12-07T02:58:23;92940.09;;;0.80;96.26
21742;BME280;11033;47.490;11.116;2022-12-07T03:01:04;92938.19;;;0.82;95.41
21742;BME280;11033;47.490;11.116;2022-12-07T03:03:30;92929.16;;;0.86;94.29
21742;BME280;11033;47.490;11.116;2022-12-07T03:06:07;92931.09;;;0.84;93.98
21742;BME280;11033;47.490;11.116;2022-12-07T03:11:29;92925.34;;;0.90;93.34
21742;BME280;11033;47.490;11.116;2022-12-07T03:16:37;92920.97;;;0.90;92.83
21742;BME280;11033;47.490;11.116;2022-12-07T03:19:15;92916.22;;;0.86;94.01
21742;BME280;11033;47.490;11.116;2022-12-07T03:21:54;92921.94;;;0.89;92.70
21742;BME280;11033;47.490;11.116;2022-12-07T03:24:26;92918.53;;;0.89;92.44
21742;BME280;11033;47.490;11.116;2022-12-07T03:26:56;92914.97;;;0.90;93.64
21742;BME280;11033;47.490;11.116;2022-12-07T03:29:28;92914.16;;;0.89;92.80
21742;BME280;11033;47.490;11.116;2022-12-07T03:32:03;92914.84;;;0.91;93.55
21742;BME280;11033;47.490;11.116;2022-12-07T03:34:38;92921.53;;;0.94;92.93
21742;BME280;11033;47.490;11.116;2022-12-07T03:37:14;92918.53;;;0.89;93.66
21742;BME280;11033;47.490;11.116;2022-12-07T03:39:52;92914.97;;;0.90;93.50
21742;BME280;11033;47.490;11.116;2022-12-07T03:42:18;92916.19;;;0.95;92.56
21742;BME280;11033;47.490;11.116;2022-12-07T03:44:43;92917.28;;;0.93;92.86
21742;BME280;11033;47.490;11.116;2022-12-07T03:47:18;92911.44;;;0.91;92.78
21742;BME280;11033;47.490;11.116;2022-12-07T03:49:52;92920.84;;;0.92;93.71
21742;BME280;11033;47.490;11.116;2022-12-07T03:52:24;92920.84;;;0.92;94.34
21742;BME280;11033;47.490;11.116;2022-12-07T03:55:08;92922.47;;;0.93;94.50
21742;BME280;11033;47.490;11.116;2022-12-07T03:57:37;92923.44;;;0.92;94.78
21742;BME280;11033;47.490;11.116;2022-12-07T04:00:06;92917.28;;;0.93;94.31
21742;BME280;11033;47.490;11.116;2022-12-07T04:02:32;92922.88;;;0.88;95.50
21742;BME280;11033;47.490;11.116;2022-12-07T04:04:58;92924.25;;;0.92;94.48
21742;BME280;11033;47.490;11.116;2022-12-07T04:07:23;92924.25;;;0.92;94.20
21742;BME280;11033;47.490;11.116;2022-12-07T04:09:49;92928.63;;;0.92;94.29
21742;BME280;11033;47.490;11.116;2022-12-07T04:12:14;92923.16;;;0.95;94.20
21742;BME280;11033;47.490;11.116;2022-12-07T04:14:39;92931.88;;;0.94;95.72
21742;BME280;11033;47.490;11.116;2022-12-07T04:17:05;92926.31;;;0.89;95.82
21742;BME280;11033;47.490;11.116;2022-12-07T04:19:32;92926.16;;;0.90;95.31
21742;BME280;11033;47.490;11.116;2022-12-07T04:21:59;92929.56;;;0.91;95.00
21742;BME280;11033;47.490;11.116;2022-12-07T04:24:25;92928.91;;;0.89;95.39
21742;BME280;11033;47.490;11.116;2022-12-07T04:26:51;92934.91;;;0.89;95.38
21742;BME280;11033;47.490;11.116;2022-12-07T04:29:17;92934.91;;;0.89;95.64
21742;BME280;11033;47.490;11.116;2022-12-07T04:31:42;92929.97;;;0.86;96.65
21742;BME280;11033;47.490;11.116;2022-12-07T04:34:09;92936.00;;;0.87;96.45
21742;BME280;11033;47.490;11.116;2022-12-07T04:36:35;92930.53;;;0.90;96.77
21742;BME280;11033;47.490;11.116;2022-12-07T04:39:00;92926.97;;;0.91;96.70
21742;BME280;11033;47.490;11.116;2022-12-07T04:41:26;92927.94;;;0.90;97.08
21742;BME280;11033;47.490;11.116;2022-12-07T04:43:55;92925.88;;;0.93;95.69
21742;BME280;11033;47.490;11.116;2022-12-07T04:46:21;92924.81;;;0.86;95.97
21742;BME280;11033;47.490;11.116;2022-12-07T04:48:47;92929.16;;;0.86;95.96
21742;BME280;11033;47.490;11.116;2022-12-07T04:51:13;92928.91;;;0.89;95.26
21742;BME280;11033;47.490;11.116;2022-12-07T04:53:39;92939.81;;;0.92;94.91
21742;BME280;11033;47.490;11.116;2022-12-07T04:56:04;92937.34;;;0.91;95.16
21742;BME280;11033;47.490;11.116;2022-12-07T04:58:30;92935.72;;;0.90;95.27
21742;BME280;11033;47.490;11.116;2022-12-07T05:00:55;92932.84;;;0.93;93.95
21742;BME280;11033;47.490;11.116;2022-12-07T05:03:20;92933.94;;;0.90;94.55
21742;BME280;11033;47.490;11.116;2022-12-07T05:05:46;92935.44;;;0.93;94.13
21742;BME280;11033;47.490;11.116;2022-12-07T05:08:11;92940.91;;;0.90;94.46
21742;BME280;11033;47.490;11.116;2022-12-07T05:10:36;92934.06;;;0.89;94.13
21742;BME280;11033;47.490;11.116;2022-12-07T05:13:02;92926.97;;;0.91;94.06
21742;BME280;11033;47.490;11.116;2022-12-07T05:15:27;92934.22;;;0.97;93.49
21742;BME280;11033;47.490;11.116;2022-12-07T05:17:52;92932.97;;;0.91;93.39
21742;BME280;11033;47.490;11.116;2022-12-07T05:20:18;92931.34;;;0.90;93.39
21742;BME280;11033;47.490;11.116;2022-12-07T05:22:43;92934.47;;;0.94;93.16
21742;BME280;11033;47.490;11.116;2022-12-07T05:25:08;92931.88;;;0.94;92.89
21742;BME280;11033;47.490;11.116;2022-12-07T05:27:33;92921.78;;;0.91;94.45
21742;BME280;11033;47.490;11.116;2022-12-07T05:29:59;92921.78;;;0.91;94.54
21742;BME280;11033;47.490;11.116;2022-12-07T05:32:24;92923.44;;;0.92;94.25
21742;BME280;11033;47.490;11.116;2022-12-07T05:34:49;92914.16;;;0.89;94.55
21742;BME280;11033;47.490;11.116;2022-12-07T05:37:15;92907.06;;;0.91;94.58
21742;BME280;11033;47.490;11.116;2022-12-07T05:39:40;92904.59;;;0.90;93.90
21742;BME280;11033;47.490;11.116;2022-12-07T05:42:09;92918.81;;;0.86;94.58
21742;BME280;11033;47.490;11.116;2022-12-07T05:44:45;92913.63;;;0.86;94.75
21742;BME280;11033;47.490;11.116;2022-12-07T05:47:12;92919.34;;;0.89;94.47
21742;BME280;11033;47.490;11.116;2022-12-07T05:49:37;92912.53;;;0.88;93.71
21742;BME280;11033;47.490;11.116;2022-12-07T05:52:03;92914.69;;;0.93;93.42
21742;BME280;11033;47.490;11.116;2022-12-07T05:54:29;92925.47;;;0.98;92.57
21742;BME280;11033;47.490;11.116;2022-12-07T05:56:55;92919.34;;;0.89;94.89
21742;BME280;11033;47.490;11.116;2022-12-07T05:59:20;92920.44;;;0.87;94.67
21742;BME280;11033;47.490;11.116;2022-12-07T06:01:50;92925.34;;;0.90;94.43
21742;BME280;11033;47.490;11.116;2022-12-07T06:04:16;92922.34;;;0.85;96.50
21742;BME280;11033;47.490;11.116;2022-12-07T06:06:42;92923.31;;;0.84;96.53
21742;BME280;11033;47.490;11.116;2022-12-07T06:09:07;92928.34;;;0.85;97.39
21742;BME280;11033;47.490;11.116;2022-12-07T06:11:32;92932.44;;;0.88;96.35
21742;BME280;11033;47.490;11.116;2022-12-07T06:14:17;92926.56;;;0.86;96.66
21742;BME280;11033;47.490;11.116;2022-12-07T06:16:42;92929.72;;;0.89;95.94
21742;BME280;11033;47.490;11.116;2022-12-07T06:19:07;92919.63;;;0.86;95.29
21742;BME280;11033;47.490;11.116;2022-12-07T06:21:33;92932.72;;;0.85;96.31
21742;BME280;11033;47.490;11.116;2022-12-07T06:23:58;92932.97;;;0.91;95.34
21742;BME280;11033;47.490;11.116;2022-12-07T06:26:23;92936.13;;;0.95;95.32
21742;BME280;11033;47.490;11.116;2022-12-07T06:28:49;92936.53;;;0.90;94.83
21742;BME280;11033;47.490;11.116;2022-12-07T06:31:14;92936.25;;;0.93;94.83
21742;BME280;11033;47.490;11.116;2022-12-07T06:33:39;92934.63;;;0.92;95.30
21742;BME280;11033;47.490;11.116;2022-12-07T06:36:05;92939.25;;;0.89;95.41
21742;BME280;11033;47.490;11.116;2022-12-07T06:38:30;92942.13;;;0.86;95.58
21742;BME280;11033;47.490;11.116;2022-12-07T06:40:56;92941.16;;;0.87;96.34
21742;BME280;11033;47.490;11.116;2022-12-07T06:43:21;92952.50;;;0.86;96.92
21742;BME280;11033;47.490;11.116;2022-12-07T06:45:46;92950.59;;;0.88;96.45
21742;BME280;11033;47.490;11.116;2022-12-07T06:48:11;92952.91;;;0.91;95.83
21742;BME280;11033;47.490;11.116;2022-12-07T06:50:37;92950.31;;;0.91;95.50
21742;BME280;11033;47.490;11.116;2022-12-07T06:53:02;92960.00;;;0.99;94.55
21742;BME280;11033;47.490;11.116;2022-12-07T06:55:27;92948.81;;;0.98;94.03
21742;BME280;11033;47.490;11.116;2022-12-07T06:57:53;92958.91;;;1.01;93.86
21742;BME280;11033;47.490;11.116;2022-12-07T07:00:18;92953.44;;;0.94;96.13
21742;BME280;11033;47.490;11.116;2022-12-07T07:02:44;92961.78;;;0.98;96.13
21742;BME280;11033;47.490;11.116;2022-12-07T07:05:09;92959.44;;;0.95;96.71
21742;BME280;11033;47.490;11.116;2022-12-07T07:07:34;92963.00;;;0.94;97.26
21742;BME280;11033;47.490;11.116;2022-12-07T07:10:00;92964.91;;;0.92;98.35
21742;BME280;11033;47.490;11.116;2022-12-07T07:12:25;92962.72;;;0.97;98.35
21742;BME280;11033;47.490;11.116;2022-12-07T07:14:50;92960.81;;;0.99;97.87
21742;BME280;11033;47.490;11.116;2022-12-07T07:17:16;92966.53;;;1.03;97.21
21742;BME280;11033;47.490;11.116;2022-12-07T07:19:41;92972.53;;;1.03;97.79
21742;BME280;11033;47.490;11.116;2022-12-07T07:22:06;92977.47;;;1.06;96.60
21742;BME280;11033;47.490;11.116;2022-12-07T07:24:32;92968.72;;;1.07;96.49
21742;BME280;11033;47.490;11.116;2022-12-07T07:26:57;92979.09;;;1.07;95.39
21742;BME280;11033;47.490;11.116;2022-12-07T07:29:22;92978.00;;;1.10;95.37
21742;BME280;11033;47.490;11.116;2022-12-07T07:31:48;92974.19;;;1.04;96.42
21742;BME280;11033;47.490;11.116;2022-12-07T07:34:13;92982.63;;;1.06;96.64
21742;BME280;11033;47.490;11.116;2022-12-07T07:36:38;92980.72;;;0.99;97.84
21742;BME280;11033;47.490;11.116;2022-12-07T07:39:03;92983.72;;;1.04;98.43
21742;BME280;11033;47.490;11.116;2022-12-07T07:41:30;92978.69;;;1.02;98.51
21742;BME280;11033;47.490;11.116;2022-12-07T07:43:55;92985.78;;;1.00;98.31
21742;BME280;11033;47.490;11.116;2022-12-07T07:46:20;92977.47;;;0.97;98.71
21742;BME280;11033;47.490;11.116;2022-12-07T07:48:45;92975.28;;;1.02;98.93
21742;BME280;11033;47.490;11.116;2022-12-07T07:51:11;92976.63;;;1.06;98.09
21742;BME280;11033;47.490;11.116;2022-12-07T07:53:36;92988.09;;;1.03;98.89
21742;BME280;11033;47.490;11.116;2022-12-07T07:56:02;92988.09;;;1.03;99.75
21742;BME280;11033;47.490;11.116;2022-12-07T07:58:28;92982.09;;;1.03;98.21
21742;BME280;11033;47.490;11.116;2022-12-07T08:00:53;92991.50;;;1.04;99.69
21742;BME280;11033;47.490;11.116;2022-12-07T08:03:19;92988.66;;;1.07;98.69
21742;BME280;11033;47.490;11.116;2022-12-07T08:05:45;92982.22;;;1.01;99.68
21742;BME280;11033;47.490;11.116;2022-12-07T08:08:10;92990.41;;;1.06;98.26
21742;BME280;11033;47.490;11.116;2022-12-07T08:10:36;92988.50;;;1.08;97.71
21742;BME280;11033;47.490;11.116;2022-12-07T08:13:02;92990.81;;;1.11;96.79
21742;BME280;11033;47.490;11.116;2022-12-07T08:15:39;92992.19;;;1.06;97.09
21742;BME280;11033;47.490;11.116;2022-12-07T08:18:05;92994.94;;;1.04;97.86
21742;BME280;11033;47.490;11.116;2022-12-07T08:20:31;92997.66;;;1.03;99.00
21742;BME280;11033;47.490;11.116;2022-12-07T08:22:57;92995.34;;;1.09;98.26
21742;BME280;11033;47.490;11.116;2022-12-07T08:25:23;93004.75;;;1.10;97.87
21742;BME280;11033;47.490;11.116;2022-12-07T08:27:49;93006.38;;;1.11;98.88
21742;BME280;11033;47.490;11.116;2022-12-07T08:30:14;93003.94;;;1.10;98.77
21742;BME280;11033;47.490;11.116;2022-12-07T08:32:40;93000.94;;;1.14;98.62
21742;BME280;11033;47.490;11.116;2022-12-07T08:35:06;92995.72;;;1.14;100.00
21742;BME280;11033;47.490;11.116;2022-12-07T08:37:32;93001.75;;;1.15;99.79
21742;BME280;11033;47.490;11.116;2022-12-07T08:39:58;93000.94;;;1.14;100.00
21742;BME280;11033;47.490;11.116;2022-12-07T08:42:23;92997.91;;;1.19;99.71
21742;BME280;11033;47.490;11.116;2022-12-07T08:44:52;93000.94;;;1.14;100.00
21742;BME280;11033;47.490;11.116;2022-12-07T08:47:18;93007.88;;;1.23;99.47
21742;BME280;11033;47.490;11.116;2022-12-07T08:49:46;93004.06;;;1.27;98.64
21742;BME280;11033;47.490;11.116;2022-12-07T08:52:13;93005.16;;;1.25;98.26
21742;BME280;11033;47.490;11.116;2022-12-07T08:54:39;93011.84;;;1.27;97.76
21742;BME280;11033;47.490;11.116;2022-12-07T08:57:06;93011.28;;;1.24;97.67
21742;BME280;11033;47.490;11.116;2022-12-07T08:59:33;93010.19;;;1.26;98.60
21742;BME280;11033;47.490;11.116;2022-12-07T09:02:00;93009.66;;;1.33;97.92
21742;BME280;11033;47.490;11.116;2022-12-07T09:04:25;93016.22;;;1.37;97.32
21742;BME280;11033;47.490;11.116;2022-12-07T09:06:51;93007.75;;;1.35;96.81
21742;BME280;11033;47.490;11.116;2022-12-07T09:09:17;93010.22;;;1.36;96.78
21742;BME280;11033;47.490;11.116;2022-12-07T09:11:42;93012.66;;;1.38;96.51
21742;BME280;11033;47.490;11.116;2022-12-07T09:14:09;93012.94;;;1.35;96.01
21742;BME280;11033;47.490;11.116;2022-12-07T09:16:34;93015.53;;;1.35;96.83
21742;BME280;11033;47.490;11.116;2022-12-07T09:19:00;93010.75;;;1.40;96.83
21742;BME280;11033;47.490;11.116;2022-12-07T09:21:25;93003.50;;;1.43;95.46
21742;BME280;11033;47.490;11.116;2022-12-07T09:23:50;93005.00;;;1.46;95.57
21742;BME280;11033;47.490;11.116;2022-12-07T09:26:16;93003.66;;;1.42;96.12
21742;BME280;11033;47.490;11.116;2022-12-07T09:28:41;93010.47;;;1.43;96.11
21742;BME280;11033;47.490;11.116;2022-12-07T09:31:06;93000.09;;;1.43;96.24
21742;BME280;11033;47.490;11.116;2022-12-07T09:33:32;93002.00;;;1.41;96.33
21742;BME280;11033;47.490;11.116;2022-12-07T09:35:57;93014.44;;;1.47;96.30
21742;BME280;11033;47.490;11.116;2022-12-07T09:38:23;93009.50;;;1.44;96.24
21742;BME280;11033;47.490;11.116;2022-12-07T09:40:49;93007.72;;;1.54;95.77
21742;BME280;11033;47.490;11.116;2022-12-07T09:43:17;93008.41;;;1.46;95.94
21742;BME280;11033;47.490;11.116;2022-12-07T09:45:44;92998.69;;;1.58;95.08
21742;BME280;11033;47.490;11.116;2022-12-07T09:48:21;93010.75;;;1.49;96.41
21742;BME280;11033;47.490;11.116;2022-12-07T09:50:48;93002.25;;;1.57;95.46
21742;BME280;11033;47.490;11.116;2022-12-07T09:53:34;92999.50;;;1.58;95.33
21742;BME280;11033;47.490;11.116;2022-12-07T09:56:02;92996.47;;;1.73;94.44
21742;BME280;11033;47.490;11.116;2022-12-07T09:58:29;92995.09;;;1.78;94.42
21742;BME280;11033;47.490;11.116;2022-12-07T10:01:01;92993.44;;;1.77;94.23
21742;BME280;11033;47.490;11.116;2022-12-07T10:03:27;92985.44;;;1.61;94.71
21742;BME280;11033;47.490;11.116;2022-12-07T10:05:54;92986.53;;;1.58;94.90
21742;BME280;11033;47.490;11.116;2022-12-07T10:08:19;92986.09;;;1.73;95.00
21742;BME280;11033;47.490;11.116;2022-12-07T10:10:51;92992.94;;;1.64;94.05
21742;BME280;11033;47.490;11.116;2022-12-07T10:13:21;92988.31;;;1.58;94.90
21742;BME280;11033;47.490;11.116;2022-12-07T10:15:52;92981.16;;;1.79;94.23
21742;BME280;11033;47.490;11.116;2022-12-07T10:18:33;92986.59;;;1.86;93.93
21742;BME280;11033;47.490;11.116;2022-12-07T10:24:13;92980.00;;;1.91;93.43
21742;BME280;11033;47.490;11.116;2022-12-07T10:31:38;92968.78;;;2.01;93.59
21742;BME280;11033;47.490;11.116;2022-12-07T10:34:20;92964.94;;;2.05;93.51
21742;BME280;11033;47.490;11.116;2022-12-07T10:36:49;92966.28;;;2.09;93.54
21742;BME280;11033;47.490;11.116;2022-12-07T10:39:17;92957.41;;;2.11;93.36
21742;BME280;11033;47.490;11.116;2022-12-07T10:41:56;92962.81;;;2.18;92.88
21742;BME280;11033;47.490;11.116;2022-12-07T10:44:40;92957.44;;;2.02;93.44
21742;BME280;11033;47.490;11.116;2022-12-07T10:55:33;92953.50;;;1.98;92.21
21742;BME280;11033;47.490;11.116;2022-12-07T11:00:48;92958.41;;;2.01;92.32
21742;BME280;11033;47.490;11.116;2022-12-07T11:11:35;92949.50;;;2.03;92.65
21742;BME280;11033;47.490;11.116;2022-12-07T11:14:25;92955.31;;;2.15;91.88
21742;BME280;11033;47.490;11.116;2022-12-07T11:16:59;92940.69;;;2.14;91.60
21742;BME280;11033;47.490;11.116;2022-12-07T11:30:23;92931.47;;;2.02;92.17
21742;BME280;11033;47.490;11.116;2022-12-07T11:33:11;92927.72;;;2.14;91.90
21742;BME280;11033;47.490;11.116;2022-12-07T11:38:36;92924.88;;;2.07;91.56
21742;BME280;11033;47.490;11.116;2022-12-07T11:41:05;92924.34;;;2.04;91.17
21742;BME280;11033;47.490;11.116;2022-12-07T11:46:17;92925.31;;;2.03;92.16
21742;BME280;11033;47.490;11.116;2022-12-07T11:49:01;92925.03;;;2.06;91.31
21742;BME280;11033;47.490;11.116;2022-12-07T11:51:27;92927.25;;;2.01;91.66
21742;BME280;11033;47.490;11.116;2022-12-07T11:54:03;92920.25;;;2.01;91.50
21742;BME280;11033;47.490;11.116;2022-12-07T11:56:34;92911.94;;;1.98;91.37
21742;BME280;11033;47.490;11.116;2022-12-07T11:59:28;92910.31;;;1.97;91.32
21742;BME280;11033;47.490;11.116;2022-12-07T12:02:13;92910.16;;;1.98;91.29
21742;BME280;11033;47.490;11.116;2022-12-07T12:04:51;92907.56;;;1.98;90.43
21742;BME280;11033;47.490;11.116;2022-12-07T12:07:23;92903.22;;;1.89;90.36
21742;BME280;11033;47.490;11.116;2022-12-07T12:15:03;92902.94;;;1.92;88.92
21742;BME280;11033;47.490;11.116;2022-12-07T12:20:35;92895.75;;;1.76;89.06
21742;BME280;11033;47.490;11.116;2022-12-07T12:23:10;92890.19;;;1.71;88.67
21742;BME280;11033;47.490;11.116;2022-12-07T12:25:59;92887.00;;;1.77;88.89
21742;BME280;11033;47.490;11.116;2022-12-07T12:33:44;92880.28;;;1.84;89.03
21742;BME280;11033;47.490;11.116;2022-12-07T12:46:57;92870.34;;;1.80;88.03
21742;BME280;11033;47.490;11.116;2022-12-07T12:51:53;92874.94;;;1.86;87.97
21742;BME280;11033;47.490;11.116;2022-12-07T12:54:22;92873.41;;;1.93;88.25
21742;BME280;11033;47.490;11.116;2022-12-07T12:56:56;92869.47;;;1.89;87.77
21742;BME280;11033;47.490;11.116;2022-12-07T12:59:25;92870.41;;;1.88;88.10
21742;BME280;11033;47.490;11.116;2022-12-07T13:01:55;92874.13;;;1.85;89.95
21742;BME280;11033;47.490;11.116;2022-12-07T13:04:27;92861.38;;;1.92;89.78
21742;BME280;11033;47.490;11.116;2022-12-07T13:06:54;92856.84;;;1.94;89.02
21742;BME280;11033;47.490;11.116;2022-12-07T13:09:32;92858.63;;;1.94;89.34
21742;BME280;11033;47.490;11.116;2022-12-07T13:12:05;92860.56;;;1.91;88.85
21742;BME280;11033;47.490;11.116;2022-12-07T13:14:54;92852.63;;;1.93;89.64
21742;BME280;11033;47.490;11.116;2022-12-07T13:19:59;92849.63;;;1.98;89.26
21742;BME280;11033;47.490;11.116;2022-12-07T13:27:41;92860.28;;;1.95;88.50
21742;BME280;11033;47.490;11.116;2022-12-07T13:30:19;92856.44;;;1.99;87.95
21742;BME280;11033;47.490;11.116;2022-12-07T13:32:56;92849.56;;;2.07;87.89
21742;BME280;11033;47.490;11.116;2022-12-07T13:35:34;92849.84;;;2.04;87.56
21742;BME280;11033;47.490;11.116;2022-12-07T13:38:02;92849.47;;;1.99;87.54
21742;BME280;11033;47.490;11.116;2022-12-07T13:40:29;92850.66;;;2.05;87.71
21742;BME280;11033;47.490;11.116;2022-12-07T13:43:03;92848.75;;;2.07;86.90
21742;BME280;11033;47.490;11.116;2022-12-07T13:45:32;92849.41;;;2.09;86.87
21742;BME280;11033;47.490;11.116;2022-12-07T13:48:21;92848.22;;;2.03;86.43
21742;BME280;11033;47.490;11.116;2022-12-07T13:50:56;92846.16;;;2.07;87.39
21742;BME280;11033;47.490;11.116;2022-12-07T13:53:22;92856.16;;;2.02;86.93
21742;BME280;11033;47.490;11.116;2022-12-07T13:55:48;92852.31;;;2.06;87.29
21742;BME280;11033;47.490;11.116;2022-12-07T13:58:14;92854.22;;;2.04;87.12
21742;BME280;11033;47.490;11.116;2022-12-07T14:00:40;92842.22;;;2.03;86.84
21742;BME280;11033;47.490;11.116;2022-12-07T14:05:40;92834.94;;;2.06;86.74
21742;BME280;11033;47.490;11.116;2022-12-07T14:13:34;92831.16;;;2.01;86.49
21742;BME280;11033;47.490;11.116;2022-12-07T14:16:01;92830.47;;;1.99;85.83
21742;BME280;11033;47.490;11.116;2022-12-07T14:18:40;92831.81;;;2.03;87.23
21742;BME280;11033;47.490;11.116;2022-12-07T14:21:17;92833.16;;;2.07;87.30
21742;BME280;11033;47.490;11.116;2022-12-07T14:23:44;92834.84;;;1.98;87.61
21742;BME280;11033;47.490;11.116;2022-12-07T14:26:19;92834.03;;;1.98;88.24
21742;BME280;11033;47.490;11.116;2022-12-07T14:28:46;92828.84;;;1.98;88.41
21742;BME280;11033;47.490;11.116;2022-12-07T14:31:14;92831.03;;;1.92;88.93
21742;BME280;11033;47.490;11.116;2022-12-07T14:33:40;92830.47;;;1.99;88.94
21742;BME280;11033;47.490;11.116;2022-12-07T14:36:09;92828.56;;;2.01;89.09
21742;BME280;11033;47.490;11.116;2022-12-07T14:38:34;92826.63;;;2.03;88.49
21742;BME280;11033;47.490;11.116;2022-12-07T14:40:59;92825.97;;;2.01;88.33
21742;BME280;11033;47.490;11.116;2022-12-07T14:43:45;92833.22;;;1.97;89.28
21742;BME280;11033;47.490;11.116;2022-12-07T14:46:11;92831.97;;;2.01;88.90